createdAt,value
2022-12-17T00:00:59.457Z,81.42
2022-12-17T00:03:43.086Z,81.48
2022-12-17T00:06:26.600Z,81.32
2022-12-17T00:09:09.804Z,81.26
2022-12-17T00:11:52.600Z,81.09
2022-12-17T00:14:39.433Z,81.06
2022-12-17T00:17:22.129Z,80.96
2022-12-17T00:20:05.688Z,81.23
2022-12-17T00:22:48.782Z,80.97
2022-12-17T00:25:31.923Z,80.93
2022-12-17T00:28:14.927Z,81.16
2022-12-17T00:31:09.736Z,80.98
2022-12-17T00:33:52.725Z,80.92
2022-12-17T00:36:35.092Z,81.02
2022-12-17T00:39:19.550Z,81.24
2022-12-17T00:42:02.953Z,81.55
2022-12-17T00:44:45.986Z,81.74
2022-12-17T00:47:29.488Z,81.82
2022-12-17T00:50:12.953Z,82.05
2022-12-17T00:52:57.722Z,81.85
2022-12-17T00:55:46.361Z,82.05
2022-12-17T00:58:29.757Z,82.17
2022-12-17T01:01:16.357Z,82.08
2022-12-17T01:03:59.262Z,81.92
2022-12-17T01:06:41.484Z,81.69
2022-12-17T01:09:24.811Z,81.66
2022-12-17T01:12:07.881Z,81.91
2022-12-17T01:14:51.709Z,81.76
2022-12-17T01:17:34.708Z,81.78
2022-12-17T01:20:17.514Z,81.69
2022-12-17T01:23:00.445Z,81.86
2022-12-17T01:25:43.492Z,81.67
2022-12-17T01:28:27.009Z,81.48
2022-12-17T01:31:10.097Z,81.69
2022-12-17T01:33:53.231Z,81.62
2022-12-17T01:36:36.544Z,82.64
2022-12-17T01:39:19.614Z,82.66
2022-12-17T01:42:02.832Z,82.80
2022-12-17T01:45:14.057Z,82.64
2022-12-17T01:47:58.365Z,82.62
2022-12-17T01:50:42.638Z,82.44
2022-12-17T01:53:26.365Z,82.69
2022-12-17T01:56:09.517Z,82.19
2022-12-17T01:58:52.935Z,82.32
2022-12-17T02:01:36.710Z,82.44
2022-12-17T02:04:19.652Z,82.81
2022-12-17T02:07:07.642Z,82.96
2022-12-17T02:09:55.757Z,82.75
2022-12-17T02:12:43.703Z,82.79
2022-12-17T02:15:31.265Z,82.81
2022-12-17T02:18:17.348Z,82.96
2022-12-17T02:21:03.399Z,83.22
2022-12-17T02:23:54.601Z,82.94
2022-12-17T02:26:40.303Z,83.42
2022-12-17T02:29:25.489Z,82.96
2022-12-17T02:32:08.808Z,83.20
2022-12-17T02:35:16.009Z,83.33
2022-12-17T02:38:04.210Z,83.19
2022-12-17T02:40:47.596Z,83.33
2022-12-17T02:43:30.893Z,83.05
2022-12-17T02:46:22.555Z,82.96
2022-12-17T02:49:07.639Z,83.28
2022-12-17T02:51:50.857Z,82.97
2022-12-17T02:54:34.004Z,83.46
2022-12-17T02:57:17.336Z,83.34
2022-12-17T03:00:00.801Z,83.34
2022-12-17T03:02:43.944Z,83.40
2022-12-17T03:05:44.589Z,83.68
2022-12-17T03:08:28.607Z,83.33
2022-12-17T03:11:12.497Z,83.74
2022-12-17T03:13:55.634Z,83.66
2022-12-17T03:16:38.709Z,83.70
2022-12-17T03:19:21.919Z,83.40
2022-12-17T03:22:04.959Z,83.98
2022-12-17T03:24:49.438Z,83.41
2022-12-17T03:27:32.468Z,83.69
2022-12-17T03:30:15.825Z,83.23
2022-12-17T03:33:10.425Z,83.04
2022-12-17T03:35:53.892Z,82.95
2022-12-17T03:38:36.947Z,83.30
2022-12-17T03:41:16.304Z,83.16
2022-12-17T03:43:59.420Z,82.96
2022-12-17T03:46:42.401Z,82.84
2022-12-17T03:49:25.419Z,82.96
2022-12-17T03:52:08.560Z,82.88
2022-12-17T03:54:51.551Z,82.50
2022-12-17T03:57:34.912Z,82.66
2022-12-17T04:00:17.780Z,82.28
2022-12-17T04:03:01.005Z,82.62
2022-12-17T04:05:44.631Z,82.43
2022-12-17T04:08:28.298Z,82.51
2022-12-17T04:11:11.424Z,82.63
2022-12-17T04:13:55.067Z,82.77
2022-12-17T04:16:37.626Z,82.17
2022-12-17T04:19:20.634Z,82.16
2022-12-17T04:22:03.396Z,82.25
2022-12-17T04:24:46.681Z,81.88
2022-12-17T04:27:29.635Z,81.76
2022-12-17T04:30:24.291Z,82.19
2022-12-17T04:33:06.965Z,81.95
2022-12-17T04:35:49.905Z,82.35
2022-12-17T04:38:33.345Z,82.04
2022-12-17T04:41:16.593Z,82.12
2022-12-17T04:44:02.911Z,81.70
2022-12-17T04:46:46.840Z,81.81
2022-12-17T04:49:29.915Z,81.64
2022-12-17T04:52:12.949Z,81.79
2022-12-17T04:54:55.957Z,82.05
2022-12-17T04:57:39.439Z,82.00
2022-12-17T05:00:22.409Z,82.57
2022-12-17T05:03:06.101Z,82.71
2022-12-17T05:05:49.184Z,82.36
2022-12-17T05:08:35.678Z,82.22
2022-12-17T05:11:23.035Z,82.09
2022-12-17T05:14:06.347Z,82.02
2022-12-17T05:16:49.415Z,81.74
2022-12-17T05:19:32.632Z,81.85
2022-12-17T05:22:15.370Z,81.38
2022-12-17T05:24:54.713Z,81.13
2022-12-17T05:27:37.838Z,81.17
2022-12-17T05:30:20.664Z,80.56
2022-12-17T05:33:03.824Z,80.79
2022-12-17T05:35:46.859Z,80.99
2022-12-17T05:38:30.148Z,81.16
2022-12-17T05:41:14.184Z,81.05
2022-12-17T05:43:57.125Z,81.37
2022-12-17T05:46:40.433Z,81.31
2022-12-17T05:49:23.537Z,81.49
2022-12-17T05:52:06.574Z,81.38
2022-12-17T05:54:49.653Z,81.27
2022-12-17T05:57:33.262Z,81.17
2022-12-17T06:00:16.420Z,81.76
2022-12-17T06:03:14.322Z,81.76
2022-12-17T06:05:57.363Z,81.75
2022-12-17T06:08:40.842Z,81.93
2022-12-17T06:11:23.832Z,81.96
2022-12-17T06:14:06.693Z,81.97
2022-12-17T06:16:49.879Z,81.72
2022-12-17T06:19:33.107Z,81.66
2022-12-17T06:22:16.118Z,81.60
2022-12-17T06:24:59.365Z,82.05
2022-12-17T06:27:42.603Z,81.95
2022-12-17T06:30:26.352Z,81.84
2022-12-17T06:33:09.090Z,81.82
2022-12-17T06:35:52.524Z,81.89
2022-12-17T06:38:35.497Z,81.64
2022-12-17T06:41:20.667Z,81.41
2022-12-17T06:44:03.500Z,81.46
2022-12-17T06:46:46.333Z,81.50
2022-12-17T06:49:29.522Z,81.63
2022-12-17T06:52:27.171Z,81.55
2022-12-17T06:55:10.425Z,81.74
2022-12-17T06:57:53.504Z,81.52
2022-12-17T07:00:36.992Z,81.13
2022-12-17T07:03:20.370Z,81.08
2022-12-17T07:06:03.786Z,81.41
2022-12-17T07:08:47.215Z,81.24
2022-12-17T07:11:30.271Z,80.61
2022-12-17T07:14:13.308Z,80.92
2022-12-17T07:16:56.467Z,80.75
2022-12-17T07:19:39.662Z,80.43
2022-12-17T07:22:22.622Z,80.86
2022-12-17T07:25:05.742Z,81.06
2022-12-17T07:27:49.128Z,81.14
2022-12-17T07:30:32.270Z,81.25
2022-12-17T07:33:21.150Z,81.37
2022-12-17T07:36:00.566Z,81.42
2022-12-17T07:38:43.179Z,81.36
2022-12-17T07:41:26.789Z,81.12
2022-12-17T07:44:10.055Z,81.00
2022-12-17T07:46:53.576Z,81.01
2022-12-17T07:49:36.476Z,81.00
2022-12-17T07:52:19.500Z,81.00
2022-12-17T07:55:02.413Z,81.18
2022-12-17T07:57:45.661Z,80.65
2022-12-17T08:00:29.762Z,81.04
2022-12-17T08:03:16.639Z,80.92
2022-12-17T08:05:59.649Z,80.85
2022-12-17T08:08:42.667Z,80.75
2022-12-17T08:11:25.589Z,80.93
2022-12-17T08:14:09.692Z,80.95
2022-12-17T08:16:52.825Z,81.20
2022-12-17T08:19:37.036Z,81.05
2022-12-17T08:22:20.228Z,80.94
2022-12-17T08:24:59.680Z,80.80
2022-12-17T08:27:42.628Z,80.98
2022-12-17T08:30:26.236Z,80.90
2022-12-17T08:33:09.344Z,81.31
2022-12-17T08:35:48.708Z,80.87
2022-12-17T08:38:31.609Z,81.06
2022-12-17T08:41:14.776Z,81.05
2022-12-17T08:43:57.764Z,80.83
2022-12-17T08:46:40.540Z,81.03
2022-12-17T08:49:23.870Z,81.08
2022-12-17T08:52:07.219Z,81.21
2022-12-17T08:54:50.122Z,80.77
2022-12-17T08:57:33.195Z,80.89
2022-12-17T09:00:16.550Z,80.82
2022-12-17T09:02:59.966Z,80.75
2022-12-17T09:05:43.034Z,80.54
2022-12-17T09:08:22.824Z,80.30
2022-12-17T09:11:06.069Z,80.05
2022-12-17T09:13:49.476Z,80.45
2022-12-17T09:16:32.511Z,80.05
2022-12-17T09:19:15.522Z,79.98
2022-12-17T09:21:58.843Z,79.86
2022-12-17T09:24:42.338Z,80.48
2022-12-17T09:27:25.850Z,80.53
2022-12-17T09:30:09.519Z,80.36
2022-12-17T09:32:54.759Z,80.13
2022-12-17T09:35:37.752Z,80.29
2022-12-17T09:38:21.290Z,80.38
2022-12-17T09:41:07.629Z,80.33
2022-12-17T09:43:54.887Z,80.32
2022-12-17T09:46:45.343Z,80.19
2022-12-17T09:49:34.953Z,80.21
2022-12-17T09:52:18.087Z,80.45
2022-12-17T09:55:03.097Z,80.19
2022-12-17T09:57:47.794Z,80.22
2022-12-17T10:00:35.044Z,80.27
2022-12-17T10:03:18.163Z,80.17
2022-12-17T10:06:02.667Z,79.99
2022-12-17T10:08:46.426Z,79.74
2022-12-17T10:11:37.404Z,79.88
2022-12-17T10:14:20.937Z,79.97
2022-12-17T10:17:09.899Z,79.74
2022-12-17T10:19:56.971Z,79.31
2022-12-17T10:22:40.546Z,79.09
2022-12-17T10:25:24.135Z,79.12
2022-12-17T10:28:07.437Z,78.81
2022-12-17T10:30:51.061Z,78.97
2022-12-17T10:33:37.862Z,78.56
2022-12-17T10:36:21.293Z,78.77
2022-12-17T10:39:12.322Z,78.56
2022-12-17T10:41:59.376Z,78.32
2022-12-17T10:44:45.219Z,78.42
2022-12-17T10:47:31.590Z,78.86
2022-12-17T10:50:17.013Z,78.76
2022-12-17T10:53:03.074Z,78.64
2022-12-17T10:55:47.341Z,78.42
2022-12-17T10:58:32.105Z,78.56
2022-12-17T11:01:21.136Z,78.59
2022-12-17T11:04:08.456Z,78.52
2022-12-17T11:06:53.031Z,78.79
2022-12-17T11:09:43.211Z,78.57
2022-12-17T11:12:31.160Z,78.95
2022-12-17T11:15:16.035Z,78.78
2022-12-17T11:17:59.699Z,78.98
2022-12-17T11:20:44.771Z,78.99
2022-12-17T11:23:33.181Z,78.83
2022-12-17T11:26:18.601Z,78.99
2022-12-17T11:29:01.885Z,78.62
2022-12-17T11:31:57.397Z,79.29
2022-12-17T11:34:44.980Z,81.48
2022-12-17T11:37:33.630Z,79.74
2022-12-17T11:40:20.913Z,79.57
2022-12-17T11:43:08.745Z,79.32
2022-12-17T11:45:55.593Z,79.31
2022-12-17T11:48:42.450Z,79.19
2022-12-17T11:51:28.282Z,79.10
2022-12-17T11:54:16.315Z,79.28
2022-12-17T11:57:02.498Z,79.08
2022-12-17T11:59:53.265Z,79.30
2022-12-17T12:02:54.263Z,78.97
2022-12-17T12:05:43.887Z,79.07
2022-12-17T12:08:28.820Z,79.17
2022-12-17T12:11:16.411Z,78.96
2022-12-17T12:14:03.385Z,78.89
2022-12-17T12:16:51.956Z,78.71
2022-12-17T12:19:38.212Z,79.02
2022-12-17T12:22:30.751Z,78.81
2022-12-17T12:25:30.314Z,78.73
2022-12-17T12:28:21.095Z,78.67
2022-12-17T12:31:10.109Z,79.07
2022-12-17T12:33:57.198Z,79.09
2022-12-17T12:36:42.468Z,79.34
2022-12-17T12:39:29.283Z,79.06
2022-12-17T12:42:13.689Z,79.55
2022-12-17T12:45:01.647Z,79.33
2022-12-17T12:47:49.335Z,79.27
2022-12-17T12:50:36.523Z,78.90
2022-12-17T12:53:19.802Z,79.28
2022-12-17T12:56:03.451Z,79.31
2022-12-17T12:58:47.381Z,79.09
2022-12-17T13:01:26.787Z,78.93
2022-12-17T13:04:11.686Z,79.02
2022-12-17T13:06:40.816Z,79.14
2022-12-17T13:09:07.890Z,79.20
2022-12-17T13:11:38.273Z,79.32
2022-12-17T13:14:08.199Z,79.13
2022-12-17T13:16:38.824Z,79.34
2022-12-17T13:19:05.857Z,79.24
2022-12-17T13:21:31.956Z,78.94
2022-12-17T13:23:57.640Z,79.05
2022-12-17T13:26:25.030Z,79.19
2022-12-17T13:28:59.416Z,79.08
2022-12-17T13:31:27.764Z,78.85
2022-12-17T13:33:57.944Z,78.68
2022-12-17T13:36:27.895Z,78.85
2022-12-17T13:38:57.592Z,78.72
2022-12-17T13:41:27.912Z,78.87
2022-12-17T13:43:54.705Z,78.85
2022-12-17T13:46:21.672Z,78.88
2022-12-17T13:48:53.015Z,78.97
2022-12-17T13:51:21.115Z,78.69
2022-12-17T13:53:52.391Z,78.47
2022-12-17T13:56:23.048Z,78.71
2022-12-17T13:58:51.692Z,78.44
2022-12-17T14:01:17.352Z,78.62
2022-12-17T14:04:05.195Z,78.37
2022-12-17T14:06:34.277Z,78.69
2022-12-17T14:09:00.250Z,78.62
2022-12-17T14:11:39.727Z,78.54
2022-12-17T14:14:05.667Z,79.12
2022-12-17T14:16:31.361Z,78.39
2022-12-17T14:18:57.854Z,78.40
2022-12-17T14:21:24.120Z,78.83
2022-12-17T14:23:50.587Z,78.51
2022-12-17T14:26:16.106Z,78.35
2022-12-17T14:28:50.432Z,78.44
2022-12-17T14:31:28.186Z,78.79
2022-12-17T14:34:07.492Z,78.67
2022-12-17T14:36:33.744Z,78.63
2022-12-17T14:39:00.463Z,78.85
2022-12-17T14:41:43.975Z,78.55
2022-12-17T14:44:21.380Z,78.67
2022-12-17T14:46:47.514Z,79.00
2022-12-17T14:49:18.391Z,78.95
2022-12-17T14:51:44.153Z,78.76
2022-12-17T14:54:20.883Z,79.04
2022-12-17T14:56:47.060Z,79.10
2022-12-17T14:59:25.232Z,78.99
2022-12-17T15:01:55.726Z,79.23
2022-12-17T15:04:22.414Z,79.30
2022-12-17T15:06:48.016Z,79.12
2022-12-17T15:09:14.567Z,79.17
2022-12-17T15:11:39.994Z,79.43
2022-12-17T15:14:05.573Z,79.26
2022-12-17T15:16:31.880Z,79.34
2022-12-17T15:18:57.285Z,79.30
2022-12-17T15:21:23.066Z,79.60
2022-12-17T15:23:48.930Z,79.10
2022-12-17T15:26:15.271Z,79.32
2022-12-17T15:28:40.845Z,79.38
2022-12-17T15:31:07.387Z,79.19
2022-12-17T15:33:33.002Z,79.36
2022-12-17T15:35:58.628Z,79.27
2022-12-17T15:38:24.788Z,79.30
2022-12-17T15:40:50.136Z,78.94
2022-12-17T15:43:16.068Z,79.29
2022-12-17T15:45:42.263Z,79.16
2022-12-17T15:48:07.738Z,78.92
2022-12-17T15:50:33.316Z,79.21
2022-12-17T15:52:58.974Z,78.84
2022-12-17T15:55:24.643Z,78.77
2022-12-17T15:57:50.107Z,78.75
2022-12-17T16:00:16.328Z,78.50
2022-12-17T16:02:42.156Z,78.37
2022-12-17T16:05:08.568Z,78.39
2022-12-17T16:07:34.273Z,78.24
2022-12-17T16:10:04.767Z,78.32
2022-12-17T16:12:30.359Z,78.34
2022-12-17T16:14:56.056Z,78.49
2022-12-17T16:17:21.850Z,78.41
2022-12-17T16:19:47.230Z,78.43
2022-12-17T16:22:12.754Z,78.80
2022-12-17T16:24:38.334Z,78.47
2022-12-17T16:27:04.814Z,78.55
2022-12-17T16:29:30.533Z,78.64
2022-12-17T16:31:56.437Z,78.26
2022-12-17T16:34:21.841Z,78.78
2022-12-17T16:36:47.326Z,78.48
2022-12-17T16:39:16.147Z,78.52
2022-12-17T16:41:41.783Z,78.44
2022-12-17T16:44:07.348Z,78.21
2022-12-17T16:46:34.344Z,78.28
2022-12-17T16:49:00.736Z,78.50
2022-12-17T16:51:29.165Z,78.39
2022-12-17T16:53:55.312Z,78.41
2022-12-17T16:56:22.010Z,78.60
2022-12-17T16:58:47.876Z,78.79
2022-12-17T17:01:14.031Z,78.65
2022-12-17T17:03:41.739Z,78.69
2022-12-17T17:06:07.851Z,78.55
2022-12-17T17:08:33.259Z,78.53
2022-12-17T17:10:58.812Z,78.71
2022-12-17T17:13:24.519Z,78.88
2022-12-17T17:15:49.952Z,78.70
2022-12-17T17:18:15.367Z,78.56
2022-12-17T17:20:40.856Z,78.50
2022-12-17T17:23:06.161Z,78.71
2022-12-17T17:25:50.624Z,78.47
2022-12-17T17:28:16.966Z,78.21
2022-12-17T17:30:42.506Z,78.43
2022-12-17T17:33:07.813Z,78.28
2022-12-17T17:35:33.414Z,78.25
2022-12-17T17:37:58.937Z,78.24
2022-12-17T17:40:24.503Z,78.33
2022-12-17T17:42:53.008Z,78.27
2022-12-17T17:45:18.735Z,78.37
2022-12-17T17:47:44.147Z,78.49
2022-12-17T17:50:10.217Z,78.47
2022-12-17T17:52:35.813Z,78.65
2022-12-17T17:55:01.246Z,78.55
2022-12-17T17:57:26.760Z,78.60
2022-12-17T17:59:52.139Z,78.42
2022-12-17T18:02:17.747Z,78.73
2022-12-17T18:04:43.413Z,78.85
2022-12-17T18:07:25.136Z,78.84
2022-12-17T18:09:51.696Z,78.74
2022-12-17T18:12:34.756Z,78.80
2022-12-17T18:15:17.309Z,78.94
2022-12-17T18:17:44.451Z,78.80
2022-12-17T18:20:11.549Z,78.99
2022-12-17T18:22:36.833Z,78.92
2022-12-17T18:25:02.525Z,79.15
2022-12-17T18:27:27.911Z,79.24
2022-12-17T18:29:53.761Z,78.99
2022-12-17T18:32:19.075Z,79.09
2022-12-17T18:34:44.650Z,79.12
2022-12-17T18:37:10.064Z,79.26
2022-12-17T18:39:36.745Z,79.23
2022-12-17T18:42:19.792Z,79.50
2022-12-17T18:44:45.353Z,79.62
2022-12-17T18:47:11.333Z,79.34
2022-12-17T18:49:37.003Z,79.72
2022-12-17T18:52:02.653Z,79.63
2022-12-17T18:54:29.983Z,79.71
2022-12-17T18:57:01.927Z,79.50
2022-12-17T18:59:29.395Z,79.46
2022-12-17T19:01:56.559Z,79.68
2022-12-17T19:04:22.843Z,79.66
2022-12-17T19:06:51.792Z,79.78
2022-12-17T19:09:19.008Z,79.57
2022-12-17T19:11:45.788Z,79.70
2022-12-17T19:14:11.324Z,79.72
2022-12-17T19:16:36.723Z,79.64
2022-12-17T19:19:03.425Z,79.57
2022-12-17T19:21:29.087Z,79.53
2022-12-17T19:23:58.399Z,79.40
2022-12-17T19:26:23.952Z,79.51
2022-12-17T19:28:50.206Z,79.33
2022-12-17T19:31:16.727Z,79.29
2022-12-17T19:33:42.346Z,79.11
2022-12-17T19:36:12.496Z,79.32
2022-12-17T19:38:38.371Z,79.26
2022-12-17T19:41:08.408Z,79.29
2022-12-17T19:43:34.009Z,79.30
2022-12-17T19:46:04.368Z,79.39
2022-12-17T19:48:31.074Z,79.21
2022-12-17T19:50:59.947Z,79.30
2022-12-17T19:53:27.369Z,79.19
2022-12-17T19:55:52.774Z,79.14
2022-12-17T19:58:18.576Z,79.00
2022-12-17T20:00:44.322Z,79.12
2022-12-17T20:03:10.164Z,79.16
2022-12-17T20:05:35.702Z,79.08
2022-12-17T20:08:01.275Z,79.20
2022-12-17T20:10:26.627Z,79.15
2022-12-17T20:12:52.013Z,78.89
2022-12-17T20:15:17.352Z,78.80
2022-12-17T20:17:42.689Z,78.81
2022-12-17T20:20:09.069Z,78.95
2022-12-17T20:22:34.809Z,78.93
2022-12-17T20:25:02.051Z,79.26
2022-12-17T20:27:27.580Z,79.18
2022-12-17T20:29:53.813Z,78.98
2022-12-17T20:32:21.595Z,78.98
2022-12-17T20:34:47.031Z,79.12
2022-12-17T20:37:12.599Z,79.30
2022-12-17T20:39:38.133Z,79.39
2022-12-17T20:42:03.678Z,79.04
2022-12-17T20:44:29.255Z,79.13
2022-12-17T20:46:54.915Z,79.44
2022-12-17T20:49:20.562Z,79.09
2022-12-17T20:51:46.046Z,78.98
2022-12-17T20:54:12.069Z,79.28
2022-12-17T20:56:37.399Z,79.15
2022-12-17T20:59:04.410Z,78.85
2022-12-17T21:01:31.038Z,78.90
2022-12-17T21:03:57.056Z,79.03
2022-12-17T21:06:23.211Z,78.76
2022-12-17T21:08:50.411Z,78.81
2022-12-17T21:11:16.637Z,78.98
2022-12-17T21:13:42.500Z,78.83
2022-12-17T21:16:11.298Z,78.87
2022-12-17T21:18:37.459Z,79.05
2022-12-17T21:21:05.241Z,79.09
2022-12-17T21:23:30.721Z,78.98
2022-12-17T21:26:03.925Z,79.26
2022-12-17T21:28:35.176Z,79.14
2022-12-17T21:31:00.550Z,79.29
2022-12-17T21:33:25.994Z,79.00
2022-12-17T21:35:51.529Z,78.54
2022-12-17T21:38:17.385Z,79.16
2022-12-17T21:40:42.734Z,79.04
2022-12-17T21:43:08.412Z,78.78
2022-12-17T21:45:38.524Z,79.11
2022-12-17T21:48:04.384Z,79.18
2022-12-17T21:50:40.557Z,79.30
2022-12-17T21:53:06.230Z,79.32
2022-12-17T21:55:31.635Z,79.56
2022-12-17T21:57:57.173Z,79.23
2022-12-17T22:00:22.719Z,79.77
2022-12-17T22:02:48.483Z,79.74
2022-12-17T22:05:17.834Z,79.64
2022-12-17T22:07:44.363Z,79.69
2022-12-17T22:10:34.528Z,79.54
2022-12-17T22:13:23.726Z,79.24
2022-12-17T22:15:49.147Z,79.67
2022-12-17T22:18:14.799Z,79.67
2022-12-17T22:20:40.306Z,79.42
2022-12-17T22:23:06.055Z,79.34
2022-12-17T22:25:31.718Z,79.22
2022-12-17T22:27:57.399Z,79.32
2022-12-17T22:30:40.496Z,79.44
2022-12-17T22:33:38.508Z,79.20
2022-12-17T22:38:55.781Z,79.46
2022-12-17T22:42:10.679Z,79.49
2022-12-17T22:44:37.807Z,79.58
2022-12-17T22:44:45.171Z,79.69
2022-12-17T22:47:13.453Z,79.47
2022-12-17T22:49:39.102Z,79.49
2022-12-17T22:52:04.907Z,79.46
2022-12-17T22:54:30.570Z,79.25
2022-12-17T22:57:28.625Z,79.57
2022-12-17T22:59:42.205Z,79.22
2022-12-17T23:02:09.412Z,79.48
2022-12-17T23:04:34.952Z,79.31
2022-12-17T23:07:00.708Z,78.91
2022-12-17T23:09:27.023Z,79.14
2022-12-17T23:11:52.380Z,79.30
2022-12-17T23:14:18.261Z,79.11
2022-12-17T23:16:43.918Z,79.41
2022-12-17T23:19:09.565Z,79.37
2022-12-17T23:21:35.148Z,79.15
2022-12-17T23:24:00.936Z,79.29
2022-12-17T23:26:27.138Z,79.12
2022-12-17T23:28:57.228Z,78.76
2022-12-17T23:31:22.890Z,79.01
2022-12-17T23:33:48.540Z,78.70
2022-12-17T23:36:14.697Z,78.78
2022-12-17T23:38:40.267Z,78.51
2022-12-17T23:41:07.190Z,78.69
2022-12-17T23:43:32.613Z,78.83
2022-12-17T23:46:00.171Z,79.24
2022-12-17T23:48:25.511Z,79.09
2022-12-17T23:50:51.076Z,78.98
2022-12-17T23:53:16.424Z,79.11
2022-12-17T23:55:42.115Z,79.07
2022-12-17T23:58:07.415Z,79.33
